sensor_id;sensor_type;location;lat;lon;timestamp;pressure;altitude;pressure_sealevel;temperature;humidity
6030;BME280;3043;42.682;23.376;2022-11-06T00:01:22;94482.28;;;14.39;100.00
6030;BME280;3043;42.682;23.376;2022-11-06T00:03:50;94480.75;;;14.35;100.00
6030;BME280;3043;42.682;23.376;2022-11-06T00:06:16;94482.91;;;14.44;100.00
6030;BME280;3043;42.682;23.376;2022-11-06T00:09:04;94490.50;;;14.67;100.00
6030;BME280;3043;42.682;23.376;2022-11-06T00:11:30;94493.25;;;14.64;100.00
6030;BME280;3043;42.682;23.376;2022-11-06T00:13:56;94500.28;;;14.62;100.00
6030;BME280;3043;42.682;23.376;2022-11-06T00:16:21;94481.84;;;14.48;100.00
6030;BME280;3043;42.682;23.376;2022-11-06T00:18:48;94484.00;;;14.40;100.00
6030;BME280;3043;42.682;23.376;2022-11-06T00:21:25;94490.88;;;14.41;100.00
6030;BME280;3043;42.682;23.376;2022-11-06T00:23:51;94480.19;;;14.28;100.00
6030;BME280;3043;42.682;23.376;2022-11-06T00:26:20;94482.88;;;14.27;100.00
6030;BME280;3043;42.682;23.376;2022-11-06T00:28:46;94486.66;;;14.20;100.00
6030;BME280;3043;42.682;23.376;2022-11-06T00:31:48;94491.00;;;14.19;100.00
6030;BME280;3043;42.682;23.376;2022-11-06T00:34:05;94490.25;;;13.99;100.00
6030;BME280;3043;42.682;23.376;2022-11-06T00:36:34;94486.44;;;14.06;100.00
6030;BME280;3043;42.682;23.376;2022-11-06T00:38:59;94478.19;;;14.15;100.00
6030;BME280;3043;42.682;23.376;2022-11-06T00:41:25;94482.53;;;14.14;100.00
6030;BME280;3043;42.682;23.376;2022-11-06T00:43:57;94480.16;;;14.10;100.00
6030;BME280;3043;42.682;23.376;2022-11-06T00:46:23;94481.59;;;14.17;100.00
6030;BME280;3043;42.682;23.376;2022-11-06T00:48:48;94476.81;;;14.08;100.00
6030;BME280;3043;42.682;23.376;2022-11-06T00:51:16;94483.97;;;14.03;100.00
6030;BME280;3043;42.682;23.376;2022-11-06T00:53:43;94486.06;;;13.95;100.00
6030;BME280;3043;42.682;23.376;2022-11-06T00:56:18;94480.09;;;13.93;100.00
6030;BME280;3043;42.682;23.376;2022-11-06T00:58:45;94481.13;;;13.89;100.00
6030;BME280;3043;42.682;23.376;2022-11-06T01:01:11;94472.44;;;13.90;100.00
6030;BME280;3043;42.682;23.376;2022-11-06T01:03:38;94476.50;;;13.77;100.00
6030;BME280;3043;42.682;23.376;2022-11-06T01:06:09;94477.63;;;13.71;100.00
6030;BME280;3043;42.682;23.376;2022-11-06T01:08:35;94469.75;;;13.73;100.00
6030;BME280;3043;42.682;23.376;2022-11-06T01:11:08;94471.44;;;13.74;100.00
6030;BME280;3043;42.682;23.376;2022-11-06T01:13:34;94477.28;;;13.79;100.00
6030;BME280;3043;42.682;23.376;2022-11-06T01:15:59;94465.94;;;13.80;100.00
6030;BME280;3043;42.682;23.376;2022-11-06T01:18:25;94467.75;;;13.78;100.00
6030;BME280;3043;42.682;23.376;2022-11-06T01:20:50;94461.59;;;13.80;100.00
6030;BME280;3043;42.682;23.376;2022-11-06T01:23:16;94459.06;;;13.79;100.00
6030;BME280;3043;42.682;23.376;2022-11-06T01:25:41;94459.69;;;13.84;100.00
6030;BME280;3043;42.682;23.376;2022-11-06T01:28:06;94463.84;;;13.88;100.00
6030;BME280;3043;42.682;23.376;2022-11-06T01:30:35;94461.25;;;13.88;100.00
6030;BME280;3043;42.682;23.376;2022-11-06T01:33:01;94458.88;;;13.83;100.00
6030;BME280;3043;42.682;23.376;2022-11-06T01:35:26;94462.84;;;13.72;100.00
6030;BME280;3043;42.682;23.376;2022-11-06T01:37:51;94465.66;;;13.67;100.00
6030;BME280;3043;42.682;23.376;2022-11-06T01:40:17;94462.97;;;13.69;100.00
6030;BME280;3043;42.682;23.376;2022-11-06T01:42:42;94458.97;;;13.62;100.00
6030;BME280;3043;42.682;23.376;2022-11-06T01:45:23;94456.47;;;13.79;100.00
6030;BME280;3043;42.682;23.376;2022-11-06T01:47:50;94459.50;;;13.70;100.00
6030;BME280;3043;42.682;23.376;2022-11-06T01:50:16;94468.59;;;13.60;100.00
6030;BME280;3043;42.682;23.376;2022-11-06T01:52:42;94462.28;;;13.65;100.00
6030;BME280;3043;42.682;23.376;2022-11-06T01:55:18;94459.63;;;13.67;100.00
6030;BME280;3043;42.682;23.376;2022-11-06T01:57:46;94459.34;;;13.73;100.00
6030;BME280;3043;42.682;23.376;2022-11-06T02:00:12;94462.63;;;13.76;100.00
6030;BME280;3043;42.682;23.376;2022-11-06T02:02:38;94463.06;;;13.86;100.00
6030;BME280;3043;42.682;23.376;2022-11-06T02:05:04;94468.34;;;13.84;100.00
6030;BME280;3043;42.682;23.376;2022-11-06T02:07:31;94460.41;;;13.87;100.00
6030;BME280;3043;42.682;23.376;2022-11-06T02:09:57;94456.56;;;13.96;100.00
6030;BME280;3043;42.682;23.376;2022-11-06T02:28:22;94455.97;;;14.08;100.00
6030;BME280;3043;42.682;23.376;2022-11-06T02:30:50;94458.50;;;14.09;100.00
6030;BME280;3043;42.682;23.376;2022-11-06T02:33:26;94450.94;;;14.05;100.00
6030;BME280;3043;42.682;23.376;2022-11-06T02:35:59;94459.56;;;14.05;100.00
6030;BME280;3043;42.682;23.376;2022-11-06T02:38:30;94458.94;;;14.00;100.00
6030;BME280;3043;42.682;23.376;2022-11-06T02:41:01;94468.91;;;13.91;100.00
6030;BME280;3043;42.682;23.376;2022-11-06T02:43:32;94474.41;;;13.85;100.00
6030;BME280;3043;42.682;23.376;2022-11-06T02:46:11;94462.56;;;13.78;100.00
6030;BME280;3043;42.682;23.376;2022-11-06T02:48:46;94471.69;;;13.68;100.00
6030;BME280;3043;42.682;23.376;2022-11-06T02:51:15;94471.41;;;13.55;100.00
6030;BME280;3043;42.682;23.376;2022-11-06T02:53:43;94476.03;;;13.49;100.00
6030;BME280;3043;42.682;23.376;2022-11-06T02:56:17;94481.25;;;13.49;100.00
6030;BME280;3043;42.682;23.376;2022-11-06T02:58:48;94480.47;;;13.47;100.00
6030;BME280;3043;42.682;23.376;2022-11-06T03:03:54;94481.59;;;13.41;100.00
6030;BME280;3043;42.682;23.376;2022-11-06T03:06:39;94491.25;;;13.38;100.00
6030;BME280;3043;42.682;23.376;2022-11-06T03:09:10;94491.38;;;13.35;100.00
6030;BME280;3043;42.682;23.376;2022-11-06T03:11:36;94494.25;;;13.29;100.00
6030;BME280;3043;42.682;23.376;2022-11-06T03:24:50;94499.38;;;12.89;100.00
6030;BME280;3043;42.682;23.376;2022-11-06T03:27:30;94504.84;;;12.83;100.00
6030;BME280;3043;42.682;23.376;2022-11-06T03:30:04;94503.28;;;12.79;100.00
6030;BME280;3043;42.682;23.376;2022-11-06T03:32:35;94502.47;;;12.77;100.00
6030;BME280;3043;42.682;23.376;2022-11-06T03:35:08;94511.00;;;12.80;100.00
6030;BME280;3043;42.682;23.376;2022-11-06T03:37:39;94504.97;;;12.80;100.00
6030;BME280;3043;42.682;23.376;2022-11-06T03:40:10;94510.56;;;12.91;100.00
6030;BME280;3043;42.682;23.376;2022-11-06T03:42:38;94523.56;;;12.91;100.00
6030;BME280;3043;42.682;23.376;2022-11-06T03:45:08;94518.97;;;12.97;100.00
6030;BME280;3043;42.682;23.376;2022-11-06T03:47:45;94528.16;;;13.06;100.00
6030;BME280;3043;42.682;23.376;2022-11-06T03:50:24;94504.38;;;13.15;100.00
6030;BME280;3043;42.682;23.376;2022-11-06T03:52:57;94499.38;;;13.10;100.00
6030;BME280;3043;42.682;23.376;2022-11-06T03:55:45;94494.13;;;13.12;100.00
6030;BME280;3043;42.682;23.376;2022-11-06T03:58:17;94498.53;;;13.10;100.00
6030;BME280;3043;42.682;23.376;2022-11-06T04:00:45;94495.34;;;13.03;100.00
6030;BME280;3043;42.682;23.376;2022-11-06T04:03:17;94492.13;;;12.97;100.00
6030;BME280;3043;42.682;23.376;2022-11-06T04:05:50;94503.03;;;12.85;100.00
6030;BME280;3043;42.682;23.376;2022-11-06T04:08:20;94504.84;;;12.83;100.00
6030;BME280;3043;42.682;23.376;2022-11-06T04:11:07;94501.44;;;12.81;100.00
6030;BME280;3043;42.682;23.376;2022-11-06T04:13:53;94506.69;;;12.79;100.00
6030;BME280;3043;42.682;23.376;2022-11-06T04:16:33;94506.53;;;12.84;100.00
6030;BME280;3043;42.682;23.376;2022-11-06T04:18:59;94500.38;;;12.86;100.00
6030;BME280;3043;42.682;23.376;2022-11-06T04:24:11;94507.84;;;12.94;100.00
6030;BME280;3043;42.682;23.376;2022-11-06T04:27:21;94500.84;;;12.96;100.00
6030;BME280;3043;42.682;23.376;2022-11-06T04:30:07;94519.78;;;12.98;100.00
6030;BME280;3043;42.682;23.376;2022-11-06T04:32:43;94511.16;;;12.97;100.00
6030;BME280;3043;42.682;23.376;2022-11-06T04:35:28;94518.00;;;13.00;100.00
6030;BME280;3043;42.682;23.376;2022-11-06T04:40:46;94496.78;;;12.89;100.00
6030;BME280;3043;42.682;23.376;2022-11-06T04:44:12;94499.56;;;12.84;100.00
6030;BME280;3043;42.682;23.376;2022-11-06T04:46:16;94500.38;;;12.86;100.00
6030;BME280;3043;42.682;23.376;2022-11-06T04:48:44;94501.16;;;12.88;100.00
6030;BME280;3043;42.682;23.376;2022-11-06T04:51:12;94501.97;;;12.89;100.00
6030;BME280;3043;42.682;23.376;2022-11-06T04:53:38;94507.19;;;12.89;100.00
6030;BME280;3043;42.682;23.376;2022-11-06T04:56:10;94501.22;;;12.87;100.00
6030;BME280;3043;42.682;23.376;2022-11-06T04:58:36;94504.44;;;12.92;100.00
6030;BME280;3043;42.682;23.376;2022-11-06T05:01:03;94501.72;;;12.95;100.00
6030;BME280;3043;42.682;23.376;2022-11-06T05:03:29;94507.72;;;12.97;100.00
6030;BME280;3043;42.682;23.376;2022-11-06T05:05:54;94509.38;;;12.98;100.00
6030;BME280;3043;42.682;23.376;2022-11-06T05:08:20;94507.63;;;13.00;100.00
6030;BME280;3043;42.682;23.376;2022-11-06T05:10:46;94516.19;;;13.02;100.00
6030;BME280;3043;42.682;23.376;2022-11-06T05:13:12;94519.56;;;13.04;100.00
6030;BME280;3043;42.682;23.376;2022-11-06T05:15:38;94522.94;;;13.06;100.00
6030;BME280;3043;42.682;23.376;2022-11-06T05:18:04;94526.22;;;13.11;100.00
6030;BME280;3043;42.682;23.376;2022-11-06T05:20:30;94527.91;;;13.12;100.00
6030;BME280;3043;42.682;23.376;2022-11-06T05:22:55;94527.63;;;13.18;100.00
6030;BME280;3043;42.682;23.376;2022-11-06T05:25:31;94535.25;;;13.22;100.00
6030;BME280;3043;42.682;23.376;2022-11-06T05:27:57;94548.03;;;13.27;100.00
6030;BME280;3043;42.682;23.376;2022-11-06T05:30:24;94545.56;;;13.24;100.00
6030;BME280;3043;42.682;23.376;2022-11-06T05:32:50;94550.44;;;13.31;100.00
6030;BME280;3043;42.682;23.376;2022-11-06T05:35:17;94544.03;;;13.40;100.00
6030;BME280;3043;42.682;23.376;2022-11-06T05:37:43;94550.66;;;13.47;100.00
6030;BME280;3043;42.682;23.376;2022-11-06T05:40:09;94552.19;;;13.51;100.00
6030;BME280;3043;42.682;23.376;2022-11-06T05:42:41;94549.59;;;13.51;100.00
6030;BME280;3043;42.682;23.376;2022-11-06T05:45:09;94545.13;;;13.54;100.00
6030;BME280;3043;42.682;23.376;2022-11-06T05:47:35;94545.31;;;13.50;100.00
6030;BME280;3043;42.682;23.376;2022-11-06T05:50:03;94556.09;;;13.41;100.00
6030;BME280;3043;42.682;23.376;2022-11-06T05:52:29;94559.63;;;13.40;100.00
6030;BME280;3043;42.682;23.376;2022-11-06T05:54:56;94569.50;;;13.32;100.00
6030;BME280;3043;42.682;23.376;2022-11-06T05:57:22;94579.09;;;13.30;100.00
6030;BME280;3043;42.682;23.376;2022-11-06T05:59:47;94575.44;;;13.34;100.00
6030;BME280;3043;42.682;23.376;2022-11-06T06:02:13;94584.03;;;13.36;100.00
6030;BME280;3043;42.682;23.376;2022-11-06T06:04:38;94589.91;;;13.41;100.00
6030;BME280;3043;42.682;23.376;2022-11-06T06:07:04;94582.69;;;13.47;100.00
6030;BME280;3043;42.682;23.376;2022-11-06T06:09:29;94586.66;;;13.56;100.00
6030;BME280;3043;42.682;23.376;2022-11-06T06:11:54;94588.34;;;13.57;100.00
6030;BME280;3043;42.682;23.376;2022-11-06T06:14:20;94584.84;;;13.58;100.00
6030;BME280;3043;42.682;23.376;2022-11-06T06:16:46;94585.66;;;13.58;100.00
6030;BME280;3043;42.682;23.376;2022-11-06T06:19:12;94585.59;;;13.60;100.00
6030;BME280;3043;42.682;23.376;2022-11-06T06:21:38;94599.47;;;13.60;100.00
6030;BME280;3043;42.682;23.376;2022-11-06T06:24:04;94608.75;;;13.66;100.00
6030;BME280;3043;42.682;23.376;2022-11-06T06:26:30;94606.88;;;13.69;100.00
6030;BME280;3043;42.682;23.376;2022-11-06T06:28:55;94608.34;;;13.75;100.00
6030;BME280;3043;42.682;23.376;2022-11-06T06:31:21;94611.88;;;13.74;100.00
6030;BME280;3043;42.682;23.376;2022-11-06T06:33:47;94610.88;;;13.76;100.00
6030;BME280;3043;42.682;23.376;2022-11-06T06:36:13;94609.16;;;13.77;100.00
6030;BME280;3043;42.682;23.376;2022-11-06T06:38:38;94616.03;;;13.78;100.00
6030;BME280;3043;42.682;23.376;2022-11-06T06:41:06;94609.66;;;13.85;100.00
6030;BME280;3043;42.682;23.376;2022-11-06T06:43:33;94613.63;;;13.93;100.00
6030;BME280;3043;42.682;23.376;2022-11-06T06:46:00;94617.88;;;13.96;100.00
6030;BME280;3043;42.682;23.376;2022-11-06T06:48:27;94619.41;;;14.00;100.00
6030;BME280;3043;42.682;23.376;2022-11-06T06:50:56;94642.50;;;14.07;100.00
6030;BME280;3043;42.682;23.376;2022-11-06T06:53:22;94636.31;;;14.10;100.00
6030;BME280;3043;42.682;23.376;2022-11-06T06:55:47;94623.16;;;14.13;100.00
6030;BME280;3043;42.682;23.376;2022-11-06T06:58:12;94634.34;;;14.15;100.00
6030;BME280;3043;42.682;23.376;2022-11-06T07:00:38;94635.91;;;14.19;100.00
6030;BME280;3043;42.682;23.376;2022-11-06T07:03:03;94628.78;;;14.24;100.00
6030;BME280;3043;42.682;23.376;2022-11-06T07:05:30;94645.94;;;14.28;100.00
6030;BME280;3043;42.682;23.376;2022-11-06T07:07:55;94645.53;;;14.37;100.00
6030;BME280;3043;42.682;23.376;2022-11-06T07:10:21;94648.66;;;14.45;100.00
6030;BME280;3043;42.682;23.376;2022-11-06T07:12:46;94646.69;;;14.50;100.00
6030;BME280;3043;42.682;23.376;2022-11-06T07:15:12;94659.56;;;14.53;100.00
6030;BME280;3043;42.682;23.376;2022-11-06T07:17:37;94651.75;;;14.53;100.00
6030;BME280;3043;42.682;23.376;2022-11-06T07:20:04;94656.19;;;14.51;100.00
6030;BME280;3043;42.682;23.376;2022-11-06T07:22:29;94656.81;;;14.56;100.00
6030;BME280;3043;42.682;23.376;2022-11-06T07:24:57;94663.44;;;14.63;100.00
6030;BME280;3043;42.682;23.376;2022-11-06T07:27:23;94664.88;;;14.70;100.00
6030;BME280;3043;42.682;23.376;2022-11-06T07:29:48;94665.84;;;14.86;100.00
6030;BME280;3043;42.682;23.376;2022-11-06T07:32:14;94667.13;;;14.96;100.00
6030;BME280;3043;42.682;23.376;2022-11-06T07:34:39;94667.66;;;15.03;100.00
6030;BME280;3043;42.682;23.376;2022-11-06T07:37:05;94670.34;;;15.01;100.00
6030;BME280;3043;42.682;23.376;2022-11-06T07:39:31;94665.41;;;14.95;100.00
6030;BME280;3043;42.682;23.376;2022-11-06T07:41:56;94672.81;;;15.04;100.00
6030;BME280;3043;42.682;23.376;2022-11-06T07:44:21;94668.53;;;15.03;100.00
6030;BME280;3043;42.682;23.376;2022-11-06T07:46:47;94671.75;;;15.08;100.00
6030;BME280;3043;42.682;23.376;2022-11-06T07:49:12;94678.50;;;15.12;100.00
6030;BME280;3043;42.682;23.376;2022-11-06T07:51:40;94671.47;;;15.14;100.00
6030;BME280;3043;42.682;23.376;2022-11-06T07:54:06;94674.84;;;15.16;100.00
6030;BME280;3043;42.682;23.376;2022-11-06T07:56:31;94674.84;;;15.16;100.00
6030;BME280;3043;42.682;23.376;2022-11-06T07:58:56;94677.28;;;15.19;100.00
6030;BME280;3043;42.682;23.376;2022-11-06T08:01:22;94677.06;;;15.24;100.00
6030;BME280;3043;42.682;23.376;2022-11-06T08:03:47;94687.94;;;15.33;100.00
6030;BME280;3043;42.682;23.376;2022-11-06T08:06:13;94681.66;;;15.37;100.00
6030;BME280;3043;42.682;23.376;2022-11-06T08:08:38;94695.13;;;15.28;100.00
6030;BME280;3043;42.682;23.376;2022-11-06T08:11:06;94692.19;;;15.17;100.00
6030;BME280;3043;42.682;23.376;2022-11-06T08:13:32;94684.16;;;15.03;100.00
6030;BME280;3043;42.682;23.376;2022-11-06T08:16:08;94694.00;;;15.15;100.00
6030;BME280;3043;42.682;23.376;2022-11-06T08:18:35;94696.47;;;15.18;100.00
6030;BME280;3043;42.682;23.376;2022-11-06T08:21:00;94709.38;;;15.21;100.00
6030;BME280;3043;42.682;23.376;2022-11-06T08:23:26;94710.59;;;15.31;100.00
6030;BME280;3043;42.682;23.376;2022-11-06T08:25:56;94707.25;;;15.11;100.00
6030;BME280;3043;42.682;23.376;2022-11-06T08:28:23;94707.25;;;14.92;100.00
6030;BME280;3043;42.682;23.376;2022-11-06T08:30:49;94707.38;;;14.52;100.00
6030;BME280;3043;42.682;23.376;2022-11-06T08:33:15;94700.28;;;13.95;100.00
6030;BME280;3043;42.682;23.376;2022-11-06T08:35:40;94699.00;;;13.64;100.00
6030;BME280;3043;42.682;23.376;2022-11-06T08:38:06;94712.44;;;13.32;100.00
6030;BME280;3043;42.682;23.376;2022-11-06T08:40:31;94686.41;;;13.12;100.00
6030;BME280;3043;42.682;23.376;2022-11-06T08:42:58;94688.56;;;13.01;100.00
6030;BME280;3043;42.682;23.376;2022-11-06T08:45:24;94692.00;;;13.01;100.00
6030;BME280;3043;42.682;23.376;2022-11-06T08:47:49;94691.16;;;13.01;100.00
6030;BME280;3043;42.682;23.376;2022-11-06T08:50:15;94684.03;;;13.06;100.00
6030;BME280;3043;42.682;23.376;2022-11-06T08:52:40;94686.34;;;13.13;100.00
6030;BME280;3043;42.682;23.376;2022-11-06T08:55:06;94690.09;;;13.06;100.00
6030;BME280;3043;42.682;23.376;2022-11-06T08:57:31;94680.03;;;13.19;100.00
6030;BME280;3043;42.682;23.376;2022-11-06T08:59:57;94689.25;;;13.27;100.00
6030;BME280;3043;42.682;23.376;2022-11-06T09:02:22;94683.06;;;13.30;100.00
6030;BME280;3043;42.682;23.376;2022-11-06T09:04:48;94678.72;;;13.30;100.00
6030;BME280;3043;42.682;23.376;2022-11-06T09:07:14;94683.69;;;13.36;100.00
6030;BME280;3043;42.682;23.376;2022-11-06T09:09:40;94681.69;;;13.43;100.00
6030;BME280;3043;42.682;23.376;2022-11-06T09:12:05;94677.84;;;13.51;100.00
6030;BME280;3043;42.682;23.376;2022-11-06T09:14:32;94680.38;;;13.53;100.00
6030;BME280;3043;42.682;23.376;2022-11-06T09:16:58;94685.34;;;13.59;100.00
6030;BME280;3043;42.682;23.376;2022-11-06T09:19:23;94670.78;;;13.55;100.00
6030;BME280;3043;42.682;23.376;2022-11-06T09:21:49;94681.13;;;13.56;100.00
6030;BME280;3043;42.682;23.376;2022-11-06T09:24:14;94670.84;;;13.53;100.00
6030;BME280;3043;42.682;23.376;2022-11-06T09:26:40;94675.19;;;13.53;100.00
6030;BME280;3043;42.682;23.376;2022-11-06T09:29:05;94683.72;;;13.56;100.00
6030;BME280;3043;42.682;23.376;2022-11-06T09:31:31;94680.38;;;13.53;100.00
6030;BME280;3043;42.682;23.376;2022-11-06T09:33:56;94678.72;;;13.52;100.00
6030;BME280;3043;42.682;23.376;2022-11-06T09:36:22;94680.50;;;13.50;100.00
6030;BME280;3043;42.682;23.376;2022-11-06T09:38:47;94687.28;;;13.54;100.00
6030;BME280;3043;42.682;23.376;2022-11-06T09:41:31;94680.00;;;13.62;100.00
6030;BME280;3043;42.682;23.376;2022-11-06T09:44:18;94683.78;;;13.55;100.00
6030;BME280;3043;42.682;23.376;2022-11-06T09:46:47;94678.59;;;13.55;100.00
6030;BME280;3043;42.682;23.376;2022-11-06T09:51:56;94684.41;;;13.60;100.00
6030;BME280;3043;42.682;23.376;2022-11-06T09:54:36;94682.50;;;13.65;100.00
6030;BME280;3043;42.682;23.376;2022-11-06T09:57:10;94688.72;;;13.61;100.00
6030;BME280;3043;42.682;23.376;2022-11-06T09:59:39;94690.28;;;13.65;100.00
6030;BME280;3043;42.682;23.376;2022-11-06T10:02:29;94688.28;;;13.71;100.00
6030;BME280;3043;42.682;23.376;2022-11-06T10:05:22;94695.59;;;13.83;100.00
6030;BME280;3043;42.682;23.376;2022-11-06T10:07:44;94691.19;;;13.84;100.00
6030;BME280;3043;42.682;23.376;2022-11-06T10:10:17;94696.06;;;13.93;100.00
6030;BME280;3043;42.682;23.376;2022-11-06T10:15:25;94691.22;;;14.04;100.00
6030;BME280;3043;42.682;23.376;2022-11-06T10:20:50;94689.06;;;14.13;100.00
6030;BME280;3043;42.682;23.376;2022-11-06T10:23:48;94693.03;;;14.22;100.00
6030;BME280;3043;42.682;23.376;2022-11-06T10:26:19;94686.69;;;14.29;100.00
6030;BME280;3043;42.682;23.376;2022-11-06T10:36:43;94696.56;;;14.21;100.00
6030;BME280;3043;42.682;23.376;2022-11-06T10:39:21;94693.03;;;14.22;100.00
6030;BME280;3043;42.682;23.376;2022-11-06T10:41:55;94701.66;;;14.24;100.00
6030;BME280;3043;42.682;23.376;2022-11-06T10:44:28;94701.66;;;14.24;100.00
6030;BME280;3043;42.682;23.376;2022-11-06T10:47:03;94692.78;;;14.28;100.00
6030;BME280;3043;42.682;23.376;2022-11-06T10:52:12;94682.75;;;14.39;100.00
6030;BME280;3043;42.682;23.376;2022-11-06T10:54:59;94689.03;;;14.35;100.00
6030;BME280;3043;42.682;23.376;2022-11-06T10:59:52;94685.09;;;14.45;100.00
6030;BME280;3043;42.682;23.376;2022-11-06T11:02:34;94694.09;;;14.38;100.00
6030;BME280;3043;42.682;23.376;2022-11-06T11:05:01;94693.00;;;14.23;100.00
6030;BME280;3043;42.682;23.376;2022-11-06T11:07:34;94699.84;;;14.26;100.00
6030;BME280;3043;42.682;23.376;2022-11-06T11:12:53;94686.16;;;14.21;100.00
6030;BME280;3043;42.682;23.376;2022-11-06T11:15:24;94686.41;;;14.15;100.00
6030;BME280;3043;42.682;23.376;2022-11-06T11:18:26;94684.47;;;14.20;100.00
6030;BME280;3043;42.682;23.376;2022-11-06T11:21:22;94682.19;;;14.12;100.00
6030;BME280;3043;42.682;23.376;2022-11-06T11:26:32;94691.75;;;14.12;100.00
6030;BME280;3043;42.682;23.376;2022-11-06T11:29:00;94686.53;;;14.12;100.00
6030;BME280;3043;42.682;23.376;2022-11-06T11:31:33;94685.56;;;14.14;100.00
6030;BME280;3043;42.682;23.376;2022-11-06T11:34:02;94685.34;;;14.19;100.00
6030;BME280;3043;42.682;23.376;2022-11-06T11:39:35;94683.03;;;14.33;100.00
6030;BME280;3043;42.682;23.376;2022-11-06T11:42:36;94681.88;;;14.40;100.00
6030;BME280;3043;42.682;23.376;2022-11-06T11:47:33;94678.75;;;14.32;100.00
6030;BME280;3043;42.682;23.376;2022-11-06T11:50:30;94686.16;;;14.21;100.00
6030;BME280;3043;42.682;23.376;2022-11-06T11:55:25;94687.97;;;14.19;100.00
6030;BME280;3043;42.682;23.376;2022-11-06T11:57:54;94686.84;;;14.26;100.00
6030;BME280;3043;42.682;23.376;2022-11-06T12:00:21;94685.63;;;14.33;100.00
6030;BME280;3043;42.682;23.376;2022-11-06T12:03:09;94685.63;;;14.33;100.00
6030;BME280;3043;42.682;23.376;2022-11-06T12:05:38;94691.78;;;14.32;100.00
6030;BME280;3043;42.682;23.376;2022-11-06T12:08:05;94700.53;;;14.29;100.00
6030;BME280;3043;42.682;23.376;2022-11-06T12:10:39;94694.50;;;14.29;100.00
6030;BME280;3043;42.682;23.376;2022-11-06T12:13:16;94689.44;;;14.26;100.00
6030;BME280;3043;42.682;23.376;2022-11-06T12:15:59;94690.72;;;14.36;100.00
6030;BME280;3043;42.682;23.376;2022-11-06T12:21:04;94693.97;;;14.41;100.00
6030;BME280;3043;42.682;23.376;2022-11-06T12:23:39;94693.13;;;14.41;100.00
6030;BME280;3043;42.682;23.376;2022-11-06T12:28:38;94700.72;;;14.45;100.00
6030;BME280;3043;42.682;23.376;2022-11-06T12:31:13;94692.03;;;14.46;100.00
6030;BME280;3043;42.682;23.376;2022-11-06T12:33:42;94692.16;;;14.62;100.00
6030;BME280;3043;42.682;23.376;2022-11-06T12:36:11;94695.13;;;14.73;100.00
6030;BME280;3043;42.682;23.376;2022-11-06T12:38:43;94694.13;;;14.75;100.00
6030;BME280;3043;42.682;23.376;2022-11-06T12:43:55;94699.75;;;14.66;100.00
6030;BME280;3043;42.682;23.376;2022-11-06T12:46:45;94695.84;;;14.76;100.00
6030;BME280;3043;42.682;23.376;2022-11-06T13:00:10;94700.63;;;14.67;100.00
6030;BME280;3043;42.682;23.376;2022-11-06T13:05:46;94711.75;;;14.70;100.00
6030;BME280;3043;42.682;23.376;2022-11-06T13:19:54;94731.78;;;14.88;100.00
6030;BME280;3043;42.682;23.376;2022-11-06T13:27:51;94728.53;;;14.83;100.00
6030;BME280;3043;42.682;23.376;2022-11-06T13:30:20;94735.56;;;14.81;100.00
6030;BME280;3043;42.682;23.376;2022-11-06T13:35:33;94731.34;;;14.79;100.00
6030;BME280;3043;42.682;23.376;2022-11-06T13:38:07;94725.41;;;14.75;100.00
6030;BME280;3043;42.682;23.376;2022-11-06T13:40:41;94735.28;;;14.87;100.00
6030;BME280;3043;42.682;23.376;2022-11-06T13:43:34;94734.00;;;14.77;100.00
6030;BME280;3043;42.682;23.376;2022-11-06T13:51:55;94739.34;;;14.74;100.00
6030;BME280;3043;42.682;23.376;2022-11-06T14:05:50;94742.88;;;14.73;100.00
6030;BME280;3043;42.682;23.376;2022-11-06T14:08:42;94746.25;;;14.75;100.00
6030;BME280;3043;42.682;23.376;2022-11-06T14:11:16;94744.56;;;14.74;100.00
6030;BME280;3043;42.682;23.376;2022-11-06T14:14:06;94740.00;;;14.79;100.00
6030;BME280;3043;42.682;23.376;2022-11-06T14:16:36;94748.50;;;14.83;100.00
6030;BME280;3043;42.682;23.376;2022-11-06T14:19:21;94751.75;;;14.88;100.00
6030;BME280;3043;42.682;23.376;2022-11-06T14:21:48;94748.06;;;14.93;100.00
6030;BME280;3043;42.682;23.376;2022-11-06T14:24:31;94754.16;;;14.92;100.00
6030;BME280;3043;42.682;23.376;2022-11-06T14:26:58;94755.09;;;14.91;100.00
6030;BME280;3043;42.682;23.376;2022-11-06T14:32:21;94756.69;;;14.94;100.00
6030;BME280;3043;42.682;23.376;2022-11-06T14:38:16;94761.34;;;14.87;100.00
6030;BME280;3043;42.682;23.376;2022-11-06T14:40:42;94773.59;;;14.85;100.00
6030;BME280;3043;42.682;23.376;2022-11-06T14:43:30;94768.13;;;14.91;100.00
6030;BME280;3043;42.682;23.376;2022-11-06T14:46:25;94778.69;;;14.88;100.00
6030;BME280;3043;42.682;23.376;2022-11-06T14:48:54;94773.75;;;14.82;100.00
6030;BME280;3043;42.682;23.376;2022-11-06T14:51:26;94777.09;;;14.84;100.00
6030;BME280;3043;42.682;23.376;2022-11-06T14:53:58;94780.38;;;14.89;100.00
6030;BME280;3043;42.682;23.376;2022-11-06T14:56:26;94782.31;;;14.84;100.00
6030;BME280;3043;42.682;23.376;2022-11-06T14:58:56;94788.81;;;14.94;100.00
6030;BME280;3043;42.682;23.376;2022-11-06T15:01:30;94786.03;;;14.99;100.00
6030;BME280;3043;42.682;23.376;2022-11-06T15:04:17;94787.41;;;15.06;100.00
6030;BME280;3043;42.682;23.376;2022-11-06T15:06:47;94785.16;;;14.98;100.00
6030;BME280;3043;42.682;23.376;2022-11-06T15:09:43;94791.03;;;15.03;100.00
6030;BME280;3043;42.682;23.376;2022-11-06T15:12:02;94790.22;;;15.01;100.00
6030;BME280;3043;42.682;23.376;2022-11-06T15:17:10;94788.97;;;14.91;100.00
6030;BME280;3043;42.682;23.376;2022-11-06T15:19:50;94788.69;;;14.97;100.00
6030;BME280;3043;42.682;23.376;2022-11-06T15:22:27;94791.22;;;14.99;100.00
6030;BME280;3043;42.682;23.376;2022-11-06T15:27:43;94797.44;;;14.96;100.00
6030;BME280;3043;42.682;23.376;2022-11-06T15:30:15;94804.47;;;14.94;100.00
6030;BME280;3043;42.682;23.376;2022-11-06T15:32:45;94798.25;;;14.97;100.00
6030;BME280;3043;42.682;23.376;2022-11-06T15:38:09;94812.81;;;15.02;100.00
6030;BME280;3043;42.682;23.376;2022-11-06T15:40:38;94819.84;;;15.00;100.00